Time;durP1;ratioP1;P1;durP2;ratioP2;P2;SDS_P1;SDS_P2;PMS_P1;PMS_P2;Temp;Humidity;BMP_temperature;BMP_pressure;BME280_temperature;BME280_humidity;BME280_pressure;Samples;Min_cycle;Max_cycle;Signal;HPM_P1;HPM_P2
2022/02/11 00:01:25;;;;;;;5.67;3.83;;;7.80;1.00;;;;;;5104746;28;21208;-65
2022/02/11 00:07:00;;;;;;;5.73;4.50;;;7.80;1.00;;;;;;5104683;28;20464;-65
2022/02/11 00:09:26;;;;;;;5.27;4.60;;;7.90;1.00;;;;;;5102869;28;20430;-64
2022/02/11 00:11:55;;;;;;;8.27;4.53;;;8.00;1.00;;;;;;5110876;28;20432;-64
2022/02/11 00:14:22;;;;;;;7.33;4.60;;;8.00;1.00;;;;;;5105916;28;20194;-64
2022/02/11 00:16:47;;;;;;;5.23;4.27;;;8.10;1.00;;;;;;5105930;28;20459;-64
2022/02/11 00:19:13;;;;;;;7.53;4.30;;;8.10;1.00;;;;;;5111451;28;20436;-64
2022/02/11 00:21:39;;;;;;;8.07;4.93;;;8.10;1.00;;;;;;5108347;28;20182;-63
2022/02/11 00:24:05;;;;;;;5.73;4.43;;;8.00;1.00;;;;;;5105795;28;20203;-65
2022/02/11 00:26:35;;;;;;;5.63;4.40;;;7.90;1.00;;;;;;5101803;28;20443;-64
2022/02/11 00:32:02;;;;;;;8.03;5.63;;;7.90;1.00;;;;;;5109567;28;20470;-64
2022/02/11 00:34:41;;;;;;;5.80;4.30;;;7.90;1.00;;;;;;5081461;28;20839;-63
2022/02/11 00:37:19;;;;;;;5.97;4.23;;;8.00;1.00;;;;;;5103510;28;20817;-63
2022/02/11 01:04:03;;;;;;;9.03;5.13;;;8.00;1.00;;;;;;5103207;28;20560;-63
2022/02/11 01:06:30;;;;;;;5.87;4.30;;;8.00;1.00;;;;;;5100524;28;20505;-64
2022/02/11 01:08:56;;;;;;;6.77;5.00;;;;;;;;;;5104836;28;20432;-64
2022/02/11 01:11:38;;;;;;;7.00;4.90;;;;;;;;;;5107653;28;20441;-64
2022/02/11 01:14:04;;;;;;;7.60;5.00;;;8.30;1.00;;;;;;5108525;28;20493;-63
2022/02/11 01:16:53;;;;;;;7.27;4.70;;;8.30;1.00;;;;;;5101974;28;20501;-64
2022/02/11 01:30:17;;;;;;;4.90;3.90;;;8.00;1.00;;;;;;5095919;28;20797;-63
2022/02/11 01:40:24;;;;;;;4.20;3.53;;;8.00;1.00;;;;;;5106841;28;20663;-63
2022/02/11 01:55:56;;;;;;;4.00;3.30;;;8.10;1.00;;;;;;5101829;28;20501;-64
2022/02/11 01:58:47;;;;;;;5.83;3.50;;;8.20;1.00;;;;;;5105347;28;20230;-64
2022/02/11 02:22:08;;;;;;;3.90;3.50;;;7.80;1.00;;;;;;5106848;28;20950;-62
2022/02/11 02:30:45;;;;;;;6.37;4.37;;;7.60;1.00;;;;;;5107295;28;20439;-64
2022/02/11 02:38:08;;;;;;;6.90;4.70;;;7.70;1.00;;;;;;5106774;28;20189;-63
2022/02/11 02:50:09;;;;;;;6.10;4.83;;;10.90;1.00;;;;;;5102367;28;20496;-64
2022/02/11 02:57:20;;;;;;;4.60;3.37;;;7.30;1.00;;;;;;5105508;28;21023;-63
2022/02/11 03:58:45;;;;;;;6.37;3.33;;;6.70;1.00;;;;;;5105581;28;20519;-63
2022/02/11 04:53:05;;;;;;;4.73;3.17;;;6.60;1.00;;;;;;5052798;28;20448;-64
2022/02/11 04:55:36;;;;;;;2.80;2.40;;;6.50;1.00;;;;;;5098538;28;20931;-64
2022/02/11 05:00:47;;;;;;;3.53;3.07;;;6.30;1.00;;;;;;5101116;28;20435;-62
2022/02/11 05:03:12;;;;;;;4.20;2.80;;;6.20;1.00;;;;;;5104015;28;20432;-63
2022/02/11 05:05:51;;;;;;;2.70;2.37;;;6.20;1.00;;;;;;5102663;28;20177;-63
2022/02/11 05:08:24;;;;;;;6.13;3.53;;;6.00;1.00;;;;;;5105411;28;20639;-62
2022/02/11 05:10:54;;;;;;;5.40;2.83;;;6.00;1.00;;;;;;5104065;28;20439;-62
2022/02/11 05:13:20;;;;;;;4.20;3.00;;;5.90;1.00;;;;;;5107769;28;20450;-63
2022/02/11 05:15:46;;;;;;;4.00;2.70;;;5.90;1.00;;;;;;5106132;28;20436;-64
2022/02/11 05:18:12;;;;;;;3.20;2.90;;;5.80;1.00;;;;;;5092130;28;20972;-63
2022/02/11 05:20:38;;;;;;;4.27;2.50;;;;;;;;;;5099275;28;20540;-64
2022/02/11 05:23:05;;;;;;;2.60;2.40;;;5.60;1.00;;;;;;5094267;28;20440;-65
2022/02/11 05:25:31;;;;;;;5.10;2.40;;;;;;;;;;5096513;28;20463;-65
2022/02/11 05:27:57;;;;;;;3.77;3.03;;;;;;;;;;5101057;28;20458;-63
2022/02/11 05:30:23;;;;;;;4.43;3.53;;;5.60;1.00;;;;;;5100982;28;20869;-63
2022/02/11 05:32:48;;;;;;;3.40;2.77;;;5.50;1.00;;;;;;5104228;28;20471;-63
2022/02/11 05:35:14;;;;;;;3.57;2.40;;;;;;;;;;5101465;28;20218;-64
2022/02/11 05:37:40;;;;;;;3.87;2.60;;;5.40;1.00;;;;;;5100983;28;20205;-63
2022/02/11 05:40:06;;;;;;;3.97;2.30;;;5.40;1.00;;;;;;5101622;28;20419;-63
2022/02/11 05:42:32;;;;;;;3.23;2.90;;;5.40;1.00;;;;;;5101233;28;20189;-63
2022/02/11 05:44:58;;;;;;;5.00;2.40;;;;;;;;;;5102598;28;20455;-64
2022/02/11 05:47:23;;;;;;;2.70;2.50;;;5.30;1.00;;;;;;5099220;28;20193;-63
2022/02/11 05:49:49;;;;;;;2.60;2.40;;;5.20;1.00;;;;;;5099539;28;20436;-63
2022/02/11 05:52:15;;;;;;;3.87;2.23;;;5.20;1.00;;;;;;5102194;28;20213;-63
2022/02/11 05:54:40;;;;;;;2.47;2.27;;;5.20;1.00;;;;;;5106434;28;20194;-62
2022/02/11 05:57:06;;;;;;;3.07;2.50;;;5.10;1.00;;;;;;5085644;28;20476;-63
2022/02/11 05:59:32;;;;;;;2.97;2.67;;;5.20;1.00;;;;;;5088495;28;20508;-63
2022/02/11 06:01:58;;;;;;;3.60;3.30;;;;;;;;;;5098684;28;20785;-64
2022/02/11 06:04:24;;;;;;;3.00;2.60;;;;;;;;;;5101115;28;20265;-63
2022/02/11 06:06:51;;;;;;;2.80;2.60;;;5.10;1.00;;;;;;5089535;28;20858;-63
2022/02/11 06:09:18;;;;;;;3.43;2.63;;;;;;;;;;5104794;28;20505;-61
2022/02/11 06:11:47;;;;;;;4.97;2.37;;;4.90;1.00;;;;;;5100578;28;20432;-64
2022/02/11 06:14:13;;;;;;;4.67;2.90;;;4.90;1.00;;;;;;5104338;28;20488;-63
2022/02/11 06:16:39;;;;;;;2.73;2.30;;;4.80;1.00;;;;;;5103533;28;20578;-63
2022/02/11 06:19:05;;;;;;;3.27;2.97;;;;;;;;;;5108101;28;20436;-64
2022/02/11 06:21:31;;;;;;;2.40;2.20;;;;;;;;;;5107213;28;20579;-64
2022/02/11 06:23:56;;;;;;;3.60;3.27;;;4.30;1.00;;;;;;5102427;28;20456;-64
2022/02/11 06:26:23;;;;;;;3.00;2.60;;;4.30;1.00;;;;;;5101843;28;20747;-63
2022/02/11 06:28:49;;;;;;;3.90;3.20;;;4.40;1.00;;;;;;5105451;28;20252;-64
2022/02/11 06:31:15;;;;;;;3.47;3.07;;;4.50;1.00;;;;;;5101912;28;20428;-63
2022/02/11 06:33:42;;;;;;;3.70;2.70;;;;;;;;;;5102157;28;20505;-64
2022/02/11 06:36:08;;;;;;;4.43;3.50;;;;;;;;;;5110309;28;20456;-64
2022/02/11 06:38:34;;;;;;;5.03;3.00;;;4.50;1.00;;;;;;5101502;28;20547;-64
2022/02/11 06:40:59;;;;;;;4.10;3.30;;;4.40;1.00;;;;;;5108228;28;20523;-64
2022/02/11 06:43:25;;;;;;;4.13;3.30;;;;;;;;;;5100964;28;20195;-64
2022/02/11 06:45:51;;;;;;;3.20;2.90;;;4.30;1.00;;;;;;5101037;28;20186;-64
2022/02/11 06:48:24;;;;;;;4.37;3.63;;;4.20;1.00;;;;;;5103327;28;20458;-63
2022/02/11 06:50:51;;;;;;;3.80;3.37;;;4.30;1.00;;;;;;5107338;28;20171;-63
2022/02/11 06:53:16;;;;;;;4.03;3.30;;;4.10;1.00;;;;;;5100696;28;20712;-63
2022/02/11 06:55:42;;;;;;;3.97;3.60;;;;;;;;;;5103832;28;20546;-63
2022/02/11 06:58:10;;;;;;;3.80;3.10;;;;;;;;;;5104144;28;20186;-62
2022/02/11 07:00:38;;;;;;;4.37;3.60;;;4.00;1.00;;;;;;5102260;28;20458;-63
2022/02/11 07:03:04;;;;;;;4.37;3.97;;;4.10;1.00;;;;;;5105985;28;20440;-63
2022/02/11 07:05:29;;;;;;;3.70;3.30;;;4.00;1.00;;;;;;5098250;28;20942;-64
2022/02/11 07:07:55;;;;;;;4.77;3.43;;;;;;;;;;5100775;28;20220;-64
2022/02/11 07:10:21;;;;;;;3.40;3.10;;;;;;;;;;5103051;28;20543;-63
2022/02/11 07:12:49;;;;;;;3.53;3.10;;;;;;;;;;5101891;28;20452;-63
2022/02/11 07:15:15;;;;;;;5.03;3.93;;;;;;;;;;5102657;28;20444;-63
2022/02/11 07:17:40;;;;;;;3.87;3.43;;;4.40;1.00;;;;;;5102736;28;20479;-64
2022/02/11 07:20:07;;;;;;;3.17;2.87;;;;;;;;;;5102344;28;20480;-64
2022/02/11 07:22:37;;;;;;;4.63;4.07;;;;;;;;;;5099473;28;20617;-64
2022/02/11 07:25:08;;;;;;;4.33;3.50;;;4.60;1.00;;;;;;5105291;28;20995;-64
2022/02/11 07:27:34;;;;;;;3.50;3.20;;;4.70;1.00;;;;;;5102930;28;20452;-65
2022/02/11 07:30:00;;;;;;;3.57;2.90;;;;;;;;;;5097408;28;20780;-63
2022/02/11 07:32:26;;;;;;;4.80;2.60;;;;;;;;;;5099269;28;20187;-63
2022/02/11 07:34:52;;;;;;;2.73;2.17;;;4.80;1.00;;;;;;5100769;28;20449;-63
2022/02/11 07:37:19;;;;;;;4.23;2.60;;;4.50;1.00;;;;;;5103139;28;20793;-61
2022/02/11 07:39:45;;;;;;;2.10;1.90;;;4.70;1.00;;;;;;5106675;28;20448;-62
2022/02/11 07:42:11;;;;;;;2.30;2.07;;;4.60;1.00;;;;;;5099352;28;20568;-62
2022/02/11 07:44:36;;;;;;;2.40;1.73;;;4.70;1.00;;;;;;5107838;28;20554;-61
2022/02/11 07:47:03;;;;;;;1.80;1.70;;;;;;;;;;5101482;28;20566;-61
2022/02/11 07:49:28;;;;;;;3.13;1.90;;;;;;;;;;5104610;28;20244;-60
2022/02/11 07:51:54;;;;;;;1.87;1.70;;;4.70;1.00;;;;;;5073145;28;20865;-62
2022/02/11 07:54:20;;;;;;;2.90;2.20;;;4.70;1.00;;;;;;5053456;28;20804;-62
2022/02/11 07:56:46;;;;;;;6.47;4.90;;;4.70;1.00;;;;;;5062121;28;20958;-60
2022/02/11 07:59:12;;;;;;;5.30;3.37;;;4.60;1.00;;;;;;5070648;28;20453;-61
2022/02/11 08:01:38;;;;;;;5.40;3.03;;;;;;;;;;5061280;28;20196;-60
2022/02/11 08:04:03;;;;;;;4.50;3.00;;;4.80;1.00;;;;;;5063082;28;20212;-62
2022/02/11 08:06:29;;;;;;;4.30;2.90;;;4.80;1.00;;;;;;5061565;28;20445;-61
2022/02/11 08:08:55;;;;;;;2.80;2.40;;;;;;;;;;5069573;28;20179;-60
2022/02/11 08:11:20;;;;;;;3.33;2.67;;;4.70;1.00;;;;;;5065678;28;20331;-62
2022/02/11 08:13:46;;;;;;;3.30;2.70;;;;;;;;;;5063690;28;20684;-62
2022/02/11 08:16:12;;;;;;;1.77;1.67;;;4.40;1.00;;;;;;5068422;28;20187;-63
2022/02/11 08:18:38;;;;;;;3.10;2.67;;;4.20;1.00;;;;;;5059764;28;20441;-62
2022/02/11 08:21:03;;;;;;;4.10;2.73;;;4.20;1.00;;;;;;5053058;28;20489;-61
2022/02/11 08:23:29;;;;;;;2.10;1.90;;;4.30;1.00;;;;;;5058741;28;20728;-61
2022/02/11 08:25:55;;;;;;;2.70;2.10;;;4.20;1.00;;;;;;5067464;28;20194;-61
2022/02/11 08:28:20;;;;;;;3.27;2.63;;;4.20;1.00;;;;;;5066313;28;20317;-62
2022/02/11 08:30:49;;;;;;;3.50;2.00;;;4.20;1.00;;;;;;5067240;28;20628;-63
2022/02/11 08:33:16;;;;;;;3.63;2.50;;;4.20;1.00;;;;;;5063252;28;20175;-60
2022/02/11 08:35:41;;;;;;;2.33;2.13;;;4.10;1.00;;;;;;5056191;28;20447;-59
2022/02/11 08:38:07;;;;;;;6.87;2.23;;;4.10;1.00;;;;;;5061135;28;20480;-61
2022/02/11 08:40:35;;;;;;;2.13;1.93;;;;;;;;;;5059494;28;20538;-62
2022/02/11 08:43:01;;;;;;;2.40;2.17;;;4.40;1.00;;;;;;5066796;28;20189;-61
2022/02/11 08:45:27;;;;;;;4.00;2.53;;;4.50;1.00;;;;;;5067531;28;20970;-62
2022/02/11 08:47:53;;;;;;;3.40;2.03;;;4.60;1.00;;;;;;5064074;28;20457;-61
2022/02/11 08:50:20;;;;;;;4.90;2.23;;;;;;;;;;5065415;28;20211;-61
2022/02/11 08:52:46;;;;;;;4.70;1.77;;;4.50;1.00;;;;;;5091066;28;20210;-60
2022/02/11 08:55:12;;;;;;;2.90;2.47;;;;;;;;;;5102120;28;20530;-62
2022/02/11 08:57:44;;;;;;;5.00;2.30;;;4.80;1.00;;;;;;5100456;28;20264;-63
2022/02/11 09:00:10;;;;;;;2.93;1.80;;;4.90;1.00;;;;;;5097810;28;20500;-61
2022/02/11 09:02:36;;;;;;;2.67;1.70;;;4.90;1.00;;;;;;5104829;28;20462;-63
2022/02/11 09:05:02;;;;;;;2.53;2.10;;;;;;;;;;5101441;28;20468;-63
2022/02/11 09:07:28;;;;;;;2.00;1.80;;;;;;;;;;5103414;28;20508;-61
2022/02/11 09:09:54;;;;;;;4.80;2.40;;;;;;;;;;5104841;28;20508;-60
2022/02/11 09:12:20;;;;;;;2.10;1.90;;;5.30;1.00;;;;;;5099390;28;20444;-61
2022/02/11 09:14:45;;;;;;;2.77;1.93;;;5.40;1.00;;;;;;5098746;28;20447;-62
2022/02/11 09:17:11;;;;;;;2.27;2.07;;;;;;;;;;5101583;28;20238;-61
2022/02/11 09:19:36;;;;;;;3.10;1.93;;;5.60;1.00;;;;;;5100118;28;20277;-62
2022/02/11 09:22:02;;;;;;;3.80;2.30;;;5.70;1.00;;;;;;5101715;28;20882;-63
2022/02/11 09:24:28;;;;;;;4.23;2.73;;;5.60;1.00;;;;;;5099876;28;20290;-63
2022/02/11 09:26:54;;;;;;;7.27;2.90;;;;;;;;;;5105501;28;20182;-62
2022/02/11 09:29:19;;;;;;;4.30;2.50;;;5.50;1.00;;;;;;5107230;28;20174;-62
2022/02/11 09:31:45;;;;;;;4.07;2.50;;;5.60;1.00;;;;;;5101576;28;20437;-63
2022/02/11 09:34:12;;;;;;;3.30;2.37;;;5.70;1.00;;;;;;5105605;28;20193;-63
2022/02/11 09:36:39;;;;;;;4.27;2.23;;;5.90;1.00;;;;;;5107125;28;20451;-63
2022/02/11 09:39:07;;;;;;;6.33;2.80;;;5.90;1.00;;;;;;5107255;28;20463;-62
2022/02/11 09:41:33;;;;;;;5.37;1.93;;;5.70;1.00;;;;;;5107673;28;20456;-63
2022/02/11 09:44:00;;;;;;;2.03;1.83;;;5.80;1.00;;;;;;5107738;28;20463;-63
2022/02/11 09:46:30;;;;;;;3.57;2.17;;;5.90;1.00;;;;;;5103298;28;20448;-63
2022/02/11 09:48:57;;;;;;;1.83;1.70;;;5.80;1.00;;;;;;5102976;28;20447;-63
2022/02/11 09:51:29;;;;;;;2.40;2.17;;;5.90;1.00;;;;;;5109952;28;20432;-63
2022/02/11 09:53:55;;;;;;;4.10;2.93;;;;;;;;;;5106744;28;20439;-62
2022/02/11 09:56:21;;;;;;;3.67;2.80;;;6.00;1.00;;;;;;5100752;28;20814;-63
2022/02/11 09:58:51;;;;;;;4.97;3.20;;;6.30;1.00;;;;;;5089339;28;20450;-62
2022/02/11 10:01:19;;;;;;;4.13;3.17;;;6.50;1.00;;;;;;5110258;28;20191;-62
2022/02/11 10:03:45;;;;;;;3.20;2.90;;;6.40;1.00;;;;;;5103309;28;20459;-62
2022/02/11 10:06:11;;;;;;;3.40;3.10;;;6.30;1.00;;;;;;5101685;28;20450;-62
2022/02/11 10:08:40;;;;;;;3.03;2.40;;;6.20;1.00;;;;;;5110343;28;20447;-62
2022/02/11 10:11:08;;;;;;;3.20;2.97;;;6.40;1.00;;;;;;5104718;28;20460;-61
2022/02/11 10:13:40;;;;;;;4.70;2.97;;;6.50;1.00;;;;;;5077594;28;20428;-62
2022/02/11 10:16:11;;;;;;;4.53;3.60;;;6.50;1.00;;;;;;5107351;28;20562;-62
2022/02/11 10:18:45;;;;;;;5.67;3.17;;;6.20;1.00;;;;;;5107558;28;20437;-62
2022/02/11 10:21:13;;;;;;;2.90;2.60;;;6.60;1.00;;;;;;5109492;28;20463;-62
2022/02/11 10:23:41;;;;;;;8.27;4.00;;;6.60;1.00;;;;;;5103380;28;20443;-62
2022/02/11 10:26:10;;;;;;;4.90;3.80;;;6.70;1.00;;;;;;5100097;28;20432;-62
2022/02/11 10:28:39;;;;;;;4.73;2.87;;;6.70;1.00;;;;;;5103578;28;20428;-62
2022/02/11 10:31:15;;;;;;;3.60;2.33;;;6.70;1.00;;;;;;5105918;28;20437;-62
2022/02/11 10:34:03;;;;;;;3.47;3.17;;;6.70;1.00;;;;;;5097521;28;20432;-62
2022/02/11 10:36:33;;;;;;;3.30;2.70;;;6.80;1.00;;;;;;5102897;28;20483;-62
2022/02/11 10:39:12;;;;;;;3.70;2.50;;;6.90;1.00;;;;;;5104097;28;20518;-61
2022/02/11 10:41:55;;;;;;;5.67;3.23;;;7.30;1.00;;;;;;5104771;28;20480;-61
2022/02/11 10:44:23;;;;;;;5.73;3.10;;;7.60;1.00;;;;;;5107637;28;20521;-61
2022/02/11 10:46:50;;;;;;;4.13;2.93;;;7.50;1.00;;;;;;5097428;28;20443;-62
2022/02/11 10:49:18;;;;;;;2.87;2.60;;;7.10;1.00;;;;;;5099858;28;20437;-61
2022/02/11 10:51:49;;;;;;;2.93;2.50;;;7.20;1.00;;;;;;5096716;28;20461;-63
2022/02/11 10:54:29;;;;;;;3.33;2.80;;;6.90;1.00;;;;;;5087098;28;20444;-65
2022/02/11 10:57:00;;;;;;;6.87;2.50;;;6.60;1.00;;;;;;5102113;28;21002;-64
2022/02/11 10:59:28;;;;;;;5.03;2.90;;;6.50;1.00;;;;;;5104530;28;20468;-65
2022/02/11 11:01:56;;;;;;;2.63;2.33;;;6.20;1.00;;;;;;5096386;28;20909;-65
2022/02/11 11:04:22;;;;;;;4.10;2.70;;;6.10;1.00;;;;;;5104977;28;20846;-63
2022/02/11 11:06:49;;;;;;;7.77;2.67;;;6.20;1.00;;;;;;5107496;28;20437;-65
2022/02/11 11:09:16;;;;;;;7.20;3.23;;;6.20;1.00;;;;;;5108137;28;20455;-63
2022/02/11 11:11:44;;;;;;;5.53;3.87;;;6.00;1.00;;;;;;5106273;28;20540;-64
2022/02/11 11:14:16;;;;;;;5.00;3.50;;;6.00;1.00;;;;;;5086845;28;20488;-66
2022/02/11 11:16:43;;;;;;;3.47;3.00;;;6.20;1.00;;;;;;5086060;28;20475;-66
2022/02/11 11:19:09;;;;;;;7.30;3.30;;;6.40;1.00;;;;;;5097424;28;20449;-65
2022/02/11 11:22:11;;;;;;;3.67;2.90;;;6.60;1.00;;;;;;5100286;28;20774;-66
2022/02/11 11:25:01;;;;;;;7.30;3.30;;;6.70;1.00;;;;;;5097679;28;20475;-66
2022/02/11 11:27:49;;;;;;;7.30;3.47;;;6.80;1.00;;;;;;5104841;28;21020;-65
2022/02/11 11:30:32;;;;;;;9.37;3.60;;;6.70;1.00;;;;;;5103169;28;20440;-67
2022/02/11 11:33:04;;;;;;;4.70;3.43;;;6.60;1.00;;;;;;5098193;28;20475;-65
2022/02/11 11:35:30;;;;;;;5.73;3.53;;;;;;;;;;5104230;28;20475;-64
2022/02/11 11:38:25;;;;;;;4.60;3.23;;;6.70;1.00;;;;;;5108107;28;20871;-72
2022/02/11 11:41:14;;;;;;;2.93;2.73;;;6.90;1.00;;;;;;5107715;28;20456;-65
2022/02/11 11:43:50;;;;;;;5.60;2.90;;;7.10;1.00;;;;;;5106120;28;20483;-66
2022/02/11 11:46:15;;;;;;;3.40;3.10;;;7.20;1.00;;;;;;5101442;28;20936;-64
2022/02/11 11:49:00;;;;;;;4.83;3.57;;;6.90;1.00;;;;;;5101351;28;20443;-64
2022/02/11 11:51:29;;;;;;;5.10;3.10;;;7.00;1.00;;;;;;5102551;28;20359;-65
2022/02/11 11:54:21;;;;;;;6.80;2.53;;;7.00;1.00;;;;;;5083398;28;20456;-64
2022/02/11 11:56:52;;;;;;;4.13;2.70;;;7.10;1.00;;;;;;5099737;28;20523;-65
2022/02/11 11:59:23;;;;;;;3.90;2.50;;;7.20;1.00;;;;;;5104343;28;20451;-65
2022/02/11 12:02:05;;;;;;;4.60;2.63;;;7.20;1.00;;;;;;5085850;28;20450;-64
2022/02/11 12:04:45;;;;;;;3.90;2.83;;;7.10;1.00;;;;;;5083574;28;20462;-65
2022/02/11 12:07:13;;;;;;;3.93;3.33;;;7.10;1.00;;;;;;5102875;28;20937;-65
2022/02/11 12:09:45;;;;;;;2.80;2.60;;;7.10;1.00;;;;;;5096022;28;20444;-65
2022/02/11 12:12:14;;;;;;;3.30;3.00;;;7.10;1.00;;;;;;5105420;28;20449;-65
2022/02/11 12:14:41;;;;;;;3.30;2.70;;;7.30;1.00;;;;;;5099039;28;20456;-64
2022/02/11 12:17:10;;;;;;;4.53;2.70;;;7.50;1.00;;;;;;5106257;28;20466;-66
2022/02/11 12:19:37;;;;;;;4.47;3.30;;;7.40;1.00;;;;;;5082142;28;20436;-66
2022/02/11 12:22:06;;;;;;;6.87;2.70;;;7.30;1.00;;;;;;5098686;28;20803;-65
2022/02/11 12:27:20;;;;;;;4.33;2.50;;;7.30;1.00;;;;;;5102158;28;20910;-66
2022/02/11 12:30:01;;;;;;;4.10;2.70;;;7.30;1.00;;;;;;5101495;28;20499;-64
2022/02/11 12:32:53;;;;;;;3.83;2.57;;;7.40;1.00;;;;;;5098585;28;20503;-64
2022/02/11 12:35:23;;;;;;;3.97;3.33;;;7.10;1.00;;;;;;5094947;28;20456;-65
2022/02/11 12:37:49;;;;;;;3.33;2.70;;;7.10;1.00;;;;;;5095676;28;20440;-66
2022/02/11 12:40:25;;;;;;;3.97;3.00;;;7.00;1.00;;;;;;5066002;28;20481;-65
2022/02/11 12:42:54;;;;;;;3.63;2.97;;;7.10;1.00;;;;;;5102685;28;20450;-65
2022/02/11 12:45:22;;;;;;;4.43;2.87;;;7.20;1.00;;;;;;5099622;28;21107;-65
2022/02/11 12:47:50;;;;;;;4.87;3.03;;;;;;;;;;5097926;28;20782;-65
2022/02/11 12:50:28;;;;;;;4.60;2.80;;;7.00;1.00;;;;;;5091468;28;20706;-66
2022/02/11 12:52:57;;;;;;;4.00;2.73;;;7.20;1.00;;;;;;5083015;28;21020;-65
2022/02/11 12:55:27;;;;;;;3.80;3.47;;;7.10;1.00;;;;;;5093395;28;20522;-65
2022/02/11 12:57:58;;;;;;;5.77;3.20;;;6.80;1.00;;;;;;5088854;28;20506;-64
2022/02/11 13:00:28;;;;;;;5.60;2.97;;;6.70;1.00;;;;;;5103792;28;20783;-65
2022/02/11 13:03:00;;;;;;;3.50;3.20;;;6.80;1.00;;;;;;5086997;28;20440;-66
2022/02/11 13:05:27;;;;;;;4.10;3.13;;;6.80;1.00;;;;;;5104102;28;20460;-65
2022/02/11 13:07:58;;;;;;;4.87;3.00;;;6.80;1.00;;;;;;5088201;28;20443;-65
2022/02/11 13:10:29;;;;;;;3.30;2.90;;;6.90;1.00;;;;;;5086336;28;20432;-65
2022/02/11 13:12:57;;;;;;;2.97;2.40;;;6.80;1.00;;;;;;5102905;28;20559;-65
2022/02/11 13:15:27;;;;;;;6.60;2.87;;;6.90;1.00;;;;;;5086466;28;20436;-70
2022/02/11 13:17:55;;;;;;;4.33;2.50;;;6.70;1.00;;;;;;5099317;28;20432;-68
2022/02/11 13:20:27;;;;;;;3.80;3.47;;;6.50;1.00;;;;;;5104766;28;20968;-68
2022/02/11 13:22:53;;;;;;;5.10;3.20;;;6.40;1.00;;;;;;5099312;28;20441;-68
2022/02/11 13:25:19;;;;;;;5.70;3.07;;;6.50;1.00;;;;;;5103483;28;20527;-67
2022/02/11 13:27:53;;;;;;;3.60;2.90;;;6.60;1.00;;;;;;5098258;28;20475;-65
2022/02/11 13:30:27;;;;;;;4.07;2.97;;;6.70;1.00;;;;;;5097902;28;20451;-66
2022/02/11 13:32:54;;;;;;;4.00;3.27;;;4.20;1.00;;;;;;5082185;28;20432;-66
2022/02/11 13:35:20;;;;;;;4.63;3.10;;;6.90;1.00;;;;;;5104733;28;20878;-66
2022/02/11 13:37:52;;;;;;;3.90;3.53;;;6.90;1.00;;;;;;5082528;28;20491;-66
2022/02/11 13:40:26;;;;;;;3.10;2.90;;;7.00;1.00;;;;;;5099665;28;20451;-66
2022/02/11 13:43:05;;;;;;;4.97;3.80;;;7.10;1.00;;;;;;5107440;28;20446;-66
2022/02/11 13:45:52;;;;;;;3.40;3.07;;;7.00;1.00;;;;;;5103126;28;20464;-66
2022/02/11 13:48:19;;;;;;;3.73;3.30;;;6.80;1.00;;;;;;5104298;28;20977;-66
2022/02/11 13:51:06;;;;;;;4.50;3.70;;;6.80;1.00;;;;;;5085398;28;20428;-67
2022/02/11 13:53:52;;;;;;;4.10;3.30;;;6.90;1.00;;;;;;5100784;28;20444;-66
2022/02/11 13:56:34;;;;;;;4.20;3.70;;;6.90;1.00;;;;;;5104543;28;20484;-65
2022/02/11 13:59:08;;;;;;;3.77;3.20;;;6.90;1.00;;;;;;5106583;28;20447;-66
2022/02/11 14:01:36;;;;;;;3.07;2.77;;;7.10;1.00;;;;;;5101310;28;20441;-66
2022/02/11 14:04:24;;;;;;;3.83;3.20;;;7.00;1.00;;;;;;5081022;28;20476;-66
2022/02/11 14:06:57;;;;;;;3.83;3.20;;;6.90;1.00;;;;;;5100255;28;20444;-67
2022/02/11 14:09:37;;;;;;;6.10;3.90;;;6.90;1.00;;;;;;5106378;28;20457;-66
2022/02/11 14:12:05;;;;;;;5.67;3.47;;;6.80;1.00;;;;;;5104591;28;20427;-67
2022/02/11 14:14:32;;;;;;;4.03;3.50;;;6.90;1.00;;;;;;5099479;28;20450;-67
2022/02/11 14:16:58;;;;;;;3.93;3.53;;;;;;;;;;5112080;28;20439;-68
2022/02/11 14:19:26;;;;;;;3.93;3.53;;;6.60;1.00;;;;;;5104978;28;20443;-66
2022/02/11 14:21:56;;;;;;;3.50;3.20;;;6.80;1.00;;;;;;5103373;28;20454;-67
2022/02/11 14:24:25;;;;;;;4.37;3.97;;;6.90;1.00;;;;;;5100937;28;20524;-67
2022/02/11 14:26:52;;;;;;;5.07;3.33;;;6.80;1.00;;;;;;5109330;28;20443;-67
2022/02/11 14:29:18;;;;;;;4.20;3.80;;;6.70;1.00;;;;;;5085400;28;20435;-66
2022/02/11 14:31:45;;;;;;;5.00;3.60;;;6.70;1.00;;;;;;5102373;28;20435;-67
2022/02/11 14:34:12;;;;;;;5.80;4.00;;;6.80;1.00;;;;;;5098657;28;20445;-66
2022/02/11 14:36:39;;;;;;;6.23;4.37;;;6.90;1.00;;;;;;5106603;28;20447;-66
2022/02/11 14:39:09;;;;;;;4.50;3.67;;;7.00;1.00;;;;;;5105997;28;20451;-66
2022/02/11 14:41:46;;;;;;;4.77;3.83;;;7.00;1.00;;;;;;5104618;28;20839;-66
2022/02/11 14:44:26;;;;;;;5.53;4.67;;;7.10;1.00;;;;;;5109147;28;20546;-66
2022/02/11 14:46:54;;;;;;;5.60;3.97;;;7.10;1.00;;;;;;5102443;28;20490;-64
2022/02/11 14:49:21;;;;;;;3.50;3.10;;;7.10;1.00;;;;;;5108890;28;20428;-65
2022/02/11 14:51:50;;;;;;;6.60;3.80;;;7.00;1.00;;;;;;5106752;28;20478;-63
2022/02/11 14:54:16;;;;;;;5.10;4.60;;;7.00;1.00;;;;;;5105017;28;20436;-65
2022/02/11 14:56:43;;;;;;;8.93;5.93;;;7.10;1.00;;;;;;5103221;28;20951;-65
2022/02/11 14:59:10;;;;;;;3.70;3.30;;;7.00;1.00;;;;;;5110602;28;20769;-66
2022/02/11 15:01:39;;;;;;;2.90;2.70;;;6.80;1.00;;;;;;5109124;28;20447;-65
2022/02/11 15:04:05;;;;;;;6.53;3.57;;;6.80;1.00;;;;;;5099335;28;20809;-65
2022/02/11 15:06:30;;;;;;;4.43;2.97;;;6.80;1.00;;;;;;5108267;28;20433;-65
2022/02/11 15:08:56;;;;;;;3.50;3.17;;;6.80;1.00;;;;;;5104449;28;20200;-65
2022/02/11 15:11:21;;;;;;;3.80;2.90;;;6.80;1.00;;;;;;5100514;28;20509;-65
2022/02/11 15:13:47;;;;;;;3.13;2.60;;;6.70;1.00;;;;;;5107417;28;20190;-66
2022/02/11 15:16:12;;;;;;;2.87;2.67;;;6.50;1.00;;;;;;5091895;28;20257;-65
2022/02/11 15:18:38;;;;;;;3.20;2.80;;;;;;;;;;5104341;28;20193;-65
2022/02/11 15:21:06;;;;;;;2.80;2.07;;;6.10;1.00;;;;;;5109525;28;20252;-66
2022/02/11 15:23:33;;;;;;;2.13;1.93;;;6.00;1.00;;;;;;5104756;28;20493;-65
2022/02/11 15:26:02;;;;;;;5.20;2.30;;;;;;;;;;5101144;28;20787;-65
2022/02/11 15:28:28;;;;;;;2.40;2.20;;;6.00;1.00;;;;;;5106888;28;20514;-64
2022/02/11 15:30:54;;;;;;;1.67;1.57;;;;;;;;;;5108847;28;20568;-65
2022/02/11 15:33:19;;;;;;;2.33;2.13;;;6.10;1.00;;;;;;5110323;28;20444;-65
2022/02/11 15:35:45;;;;;;;2.40;2.20;;;;;;;;;;5104186;28;20925;-65
2022/02/11 15:38:11;;;;;;;4.07;2.47;;;6.20;1.00;;;;;;5104566;28;20243;-65
2022/02/11 15:40:36;;;;;;;2.90;2.23;;;6.10;1.00;;;;;;5102880;28;20436;-65
2022/02/11 15:43:02;;;;;;;3.20;2.23;;;6.20;1.00;;;;;;5109135;28;20642;-64
2022/02/11 15:45:28;;;;;;;2.63;2.43;;;6.30;1.00;;;;;;5102544;28;20205;-66
2022/02/11 15:47:54;;;;;;;2.90;2.70;;;6.40;1.00;;;;;;5086462;28;20166;-65
2022/02/11 15:50:19;;;;;;;3.13;2.10;;;6.40;1.00;;;;;;5108913;28;20220;-64
2022/02/11 15:52:45;;;;;;;2.73;2.53;;;6.50;1.00;;;;;;5108812;28;20222;-65
2022/02/11 15:55:11;;;;;;;3.03;2.33;;;;;;;;;;5101742;28;20845;-64
2022/02/11 15:57:38;;;;;;;2.23;2.00;;;6.50;1.00;;;;;;5109241;28;20281;-64
2022/02/11 16:00:05;;;;;;;4.37;3.67;;;6.60;1.00;;;;;;5103682;28;20911;-64
2022/02/11 16:02:30;;;;;;;6.20;4.90;;;6.60;1.00;;;;;;5110098;28;20442;-65
2022/02/11 16:04:56;;;;;;;3.60;3.30;;;6.60;1.00;;;;;;5105555;28;20455;-65
2022/02/11 16:07:23;;;;;;;2.83;2.50;;;6.50;1.00;;;;;;5104380;28;20175;-66
2022/02/11 16:09:50;;;;;;;3.20;2.13;;;;;;;;;;5101938;28;20182;-66
2022/02/11 16:12:15;;;;;;;2.87;2.30;;;6.10;1.00;;;;;;5107324;28;20440;-66
2022/02/11 16:14:41;;;;;;;2.50;2.30;;;6.20;1.00;;;;;;5101378;28;20439;-66
2022/02/11 16:17:10;;;;;;;3.33;3.00;;;6.10;1.00;;;;;;5107849;28;20191;-68
2022/02/11 16:19:36;;;;;;;2.90;2.60;;;;;;;;;;5101111;28;20607;-66
2022/02/11 16:22:02;;;;;;;2.87;2.57;;;6.00;1.00;;;;;;5105738;28;20447;-66
2022/02/11 16:24:27;;;;;;;3.27;2.47;;;6.00;1.00;;;;;;5106120;28;20466;-67
2022/02/11 16:26:53;;;;;;;4.33;2.90;;;;;;;;;;5088094;28;20998;-67
2022/02/11 16:29:19;;;;;;;3.00;2.80;;;6.00;1.00;;;;;;5106696;28;20182;-67
2022/02/11 16:31:44;;;;;;;3.30;3.00;;;6.00;1.00;;;;;;5105100;28;20447;-67
2022/02/11 16:34:10;;;;;;;3.77;2.77;;;6.00;1.00;;;;;;5102969;28;20183;-67
2022/02/11 16:36:39;;;;;;;3.60;2.83;;;6.10;1.00;;;;;;5096021;28;20186;-65
2022/02/11 16:39:08;;;;;;;6.20;3.10;;;6.10;1.00;;;;;;5106622;28;20206;-67
2022/02/11 16:41:34;;;;;;;2.63;2.43;;;6.20;1.00;;;;;;5100148;28;20437;-66
2022/02/11 16:43:59;;;;;;;3.80;2.87;;;6.20;1.00;;;;;;5104265;28;20490;-67
2022/02/11 16:46:26;;;;;;;3.53;2.70;;;6.30;1.00;;;;;;5098506;28;20186;-65
2022/02/11 16:48:52;;;;;;;3.83;3.37;;;6.30;1.00;;;;;;5098967;28;20183;-66
2022/02/11 16:51:18;;;;;;;4.40;3.40;;;6.30;1.00;;;;;;5101298;28;20434;-67
2022/02/11 16:53:43;;;;;;;6.37;3.73;;;6.30;1.00;;;;;;5098515;28;20670;-65
2022/02/11 16:56:09;;;;;;;4.73;3.70;;;6.30;1.00;;;;;;5105926;28;20188;-66
2022/02/11 16:58:35;;;;;;;4.80;3.10;;;6.30;1.00;;;;;;5101233;28;20179;-68
2022/02/11 17:01:02;;;;;;;4.87;3.80;;;6.50;1.00;;;;;;5086743;28;20213;-65
2022/02/11 17:03:27;;;;;;;4.03;3.60;;;6.30;1.00;;;;;;5107110;28;20428;-66
2022/02/11 17:05:53;;;;;;;5.73;3.20;;;6.30;1.00;;;;;;5106069;28;20525;-69
2022/02/11 17:08:19;;;;;;;3.97;3.57;;;6.50;1.00;;;;;;5102946;28;20182;-69
2022/02/11 17:10:48;;;;;;;4.47;3.23;;;6.50;1.00;;;;;;5102082;28;20186;-68
2022/02/11 17:13:15;;;;;;;5.00;3.80;;;6.50;1.00;;;;;;5105607;28;20737;-68